Time;durP1;ratioP1;P1;durP2;ratioP2;P2;SDS_P1;SDS_P2;PMS_P1;PMS_P2;Temp;Humidity;BMP_temperature;BMP_pressure;BME280_temperature;BME280_humidity;BME280_pressure;Samples;Min_cycle;Max_cycle;Signal;HPM_P1;HPM_P2
2021/06/29 00:01:59;;;;;;;23.98;7.63;;;15.40;99.90;;;;;;4994530;28;20065;-63
2021/06/29 00:04:25;;;;;;;26.15;9.10;;;15.40;99.90;;;;;;4993191;28;20047;-63
2021/06/29 00:06:51;;;;;;;28.88;9.10;;;15.40;99.90;;;;;;4996562;28;20070;-63
2021/06/29 00:09:16;;;;;;;28.95;9.27;;;15.40;99.90;;;;;;4992806;28;20051;-63
2021/06/29 00:11:43;;;;;;;27.38;9.13;;;15.30;99.90;;;;;;4997317;28;20043;-63
2021/06/29 00:14:10;;;;;;;32.60;10.32;;;15.30;99.90;;;;;;4992651;28;20066;-63
2021/06/29 00:16:35;;;;;;;22.98;8.70;;;15.30;99.90;;;;;;4999076;28;20047;-63
2021/06/29 00:19:01;;;;;;;29.70;9.27;;;15.30;99.90;;;;;;4994117;28;20052;-63
2021/06/29 00:21:27;;;;;;;26.80;8.90;;;15.30;99.90;;;;;;4988391;28;20055;-63
2021/06/29 00:23:53;;;;;;;25.92;8.63;;;15.30;99.90;;;;;;4995154;28;20399;-64
2021/06/29 00:26:19;;;;;;;33.42;8.95;;;15.30;99.90;;;;;;4993103;28;20046;-64
2021/06/29 00:28:44;;;;;;;36.22;8.38;;;15.30;99.90;;;;;;4997024;28;20057;-64
2021/06/29 00:31:10;;;;;;;31.92;9.30;;;15.30;99.90;;;;;;4987565;28;20049;-63
2021/06/29 00:33:37;;;;;;;33.58;10.27;;;15.30;99.90;;;;;;4986940;28;20042;-63
2021/06/29 00:36:03;;;;;;;24.30;8.38;;;15.30;99.90;;;;;;4995282;28;20046;-63
2021/06/29 00:38:30;;;;;;;32.92;8.40;;;15.30;99.90;;;;;;5001199;28;20050;-63
2021/06/29 00:40:55;;;;;;;32.67;8.40;;;15.30;99.90;;;;;;5002805;28;20050;-63
2021/06/29 00:43:21;;;;;;;28.27;8.20;;;15.30;99.90;;;;;;5001220;28;20473;-62
2021/06/29 00:45:47;;;;;;;26.08;8.52;;;15.40;99.90;;;;;;4998870;28;20065;-64
2021/06/29 00:48:13;;;;;;;39.05;9.65;;;15.30;99.90;;;;;;4989922;28;20043;-62
2021/06/29 00:50:40;;;;;;;30.98;8.68;;;15.40;99.90;;;;;;4990018;28;20046;-62
2021/06/29 00:53:08;;;;;;;;;;;15.40;99.90;;;;;;4992362;28;20046;-63
2021/06/29 00:55:34;;;;;;;28.60;9.40;;;15.40;99.90;;;;;;4998178;28;21675;-62
2021/06/29 00:58:00;;;;;;;31.40;9.55;;;15.40;99.90;;;;;;4994258;28;20111;-62
2021/06/29 01:00:26;;;;;;;37.13;10.30;;;15.40;99.90;;;;;;4986150;28;20064;-62
2021/06/29 01:02:52;;;;;;;32.45;9.50;;;15.50;99.90;;;;;;4989785;28;20051;-62
2021/06/29 01:05:19;;;;;;;38.55;11.05;;;15.50;99.90;;;;;;4996849;28;20046;-64
2021/06/29 01:07:46;;;;;;;38.33;11.65;;;15.50;99.90;;;;;;4987334;28;20047;-62
2021/06/29 01:10:13;;;;;;;55.50;11.93;;;15.50;99.90;;;;;;4999326;28;20050;-61
2021/06/29 01:12:39;;;;;;;35.53;9.65;;;15.50;99.90;;;;;;4986949;28;20870;-62
2021/06/29 01:15:06;;;;;;;37.72;11.82;;;15.40;99.90;;;;;;4999671;28;20101;-62
2021/06/29 01:17:31;;;;;;;50.03;11.55;;;15.60;99.90;;;;;;4994264;28;20585;-62
2021/06/29 01:19:57;;;;;;;36.45;10.38;;;15.60;99.90;;;;;;4986821;28;20043;-62
2021/06/29 01:22:26;;;;;;;40.40;10.50;;;15.50;99.90;;;;;;4993237;28;20043;-63
2021/06/29 01:24:58;;;;;;;43.00;10.20;;;15.50;99.90;;;;;;4997650;28;20517;-64
2021/06/29 01:27:35;;;;;;;45.67;12.68;;;15.50;99.90;;;;;;5000857;28;20054;-62
2021/06/29 01:32:29;;;;;;;;;;;15.60;99.90;;;;;;4994012;28;20062;-62
2021/06/29 01:34:55;;;;;;;48.88;12.60;;;15.60;99.90;;;;;;4998292;28;19922;-62
2021/06/29 01:37:21;;;;;;;39.35;10.30;;;15.60;99.90;;;;;;4991802;28;20042;-64
2021/06/29 01:40:22;;;;;;;42.78;10.70;;;15.60;99.90;;;;;;4998295;28;20039;-64
2021/06/29 01:42:43;;;;;;;47.15;11.98;;;15.60;99.90;;;;;;4995021;28;20061;-64
2021/06/29 01:45:09;;;;;;;38.92;11.93;;;15.50;99.90;;;;;;5000122;28;20050;-64
2021/06/29 01:50:15;;;;;;;58.58;13.70;;;15.60;99.90;;;;;;5002013;28;20045;-64
2021/06/29 01:52:42;;;;;;;38.55;13.05;;;15.60;99.90;;;;;;5006840;28;20058;-64
2021/06/29 01:55:09;;;;;;;52.63;13.13;;;15.70;99.90;;;;;;5000166;28;20042;-64
2021/06/29 01:57:36;;;;;;;47.63;13.37;;;15.70;99.90;;;;;;5004808;28;20049;-63
2021/06/29 02:00:06;;;;;;;;;;;15.70;99.90;;;;;;4990912;28;20836;-62
2021/06/29 02:02:32;;;;;;;46.70;12.85;;;15.70;99.90;;;;;;4999866;28;19926;-63
2021/06/29 02:04:58;;;;;;;43.65;13.15;;;15.80;99.90;;;;;;5002663;28;20126;-63
2021/06/29 02:07:24;;;;;;;48.10;14.10;;;15.80;99.90;;;;;;4989410;28;20050;-62
2021/06/29 02:09:49;;;;;;;51.85;12.80;;;15.80;99.90;;;;;;4995087;28;20049;-62
2021/06/29 02:12:15;;;;;;;51.13;14.23;;;15.90;99.90;;;;;;4988631;28;20074;-63
2021/06/29 02:14:41;;;;;;;35.80;11.82;;;15.90;99.90;;;;;;4993858;28;20050;-62
2021/06/29 02:17:07;;;;;;;49.72;12.35;;;15.90;99.90;;;;;;4998612;28;20085;-63
2021/06/29 02:19:33;;;;;;;37.88;13.05;;;16.00;99.90;;;;;;4993030;28;20092;-63
2021/06/29 02:21:58;;;;;;;47.85;13.05;;;16.00;99.90;;;;;;4991033;28;20124;-62
2021/06/29 02:24:24;;;;;;;50.58;12.15;;;16.00;99.90;;;;;;4997820;28;20096;-63
2021/06/29 02:26:50;;;;;;;48.53;12.82;;;16.10;99.90;;;;;;4999413;28;20046;-62
2021/06/29 02:29:16;;;;;;;53.78;14.68;;;16.10;99.90;;;;;;5001527;28;20130;-62
2021/06/29 02:31:41;;;;;;;43.13;13.43;;;16.10;99.90;;;;;;5005612;28;20053;-63
2021/06/29 02:34:07;;;;;;;57.30;14.18;;;16.10;99.90;;;;;;4991810;28;20078;-63
2021/06/29 02:36:33;;;;;;;50.55;13.02;;;16.10;99.90;;;;;;4999800;28;20030;-63
2021/06/29 02:38:58;;;;;;;47.17;15.45;;;16.10;99.90;;;;;;4989820;28;20106;-62
2021/06/29 02:41:25;;;;;;;58.25;14.75;;;16.20;99.90;;;;;;4999103;28;20042;-63
2021/06/29 02:43:50;;;;;;;59.95;14.35;;;16.20;99.90;;;;;;5003826;28;20076;-62
2021/06/29 02:46:16;;;;;;;51.55;14.27;;;16.30;99.90;;;;;;4990831;28;20039;-63
2021/06/29 02:48:42;;;;;;;62.55;13.93;;;16.20;99.90;;;;;;5000309;28;20043;-63
2021/06/29 02:51:08;;;;;;;58.90;15.52;;;16.20;99.90;;;;;;4991676;28;20043;-62
2021/06/29 02:53:34;;;;;;;56.00;14.68;;;16.20;99.90;;;;;;4991640;28;20063;-62
2021/06/29 02:55:59;;;;;;;58.17;14.52;;;16.30;99.90;;;;;;4989928;28;20121;-62
2021/06/29 02:58:26;;;;;;;59.47;15.48;;;16.30;99.90;;;;;;4991980;28;20566;-63
2021/06/29 03:00:52;;;;;;;49.45;13.65;;;16.30;99.90;;;;;;4990221;28;20050;-62
2021/06/29 03:03:18;;;;;;;53.30;14.50;;;16.30;99.90;;;;;;4997790;28;20123;-63
2021/06/29 03:05:44;;;;;;;56.17;14.40;;;16.30;99.90;;;;;;4996650;28;20070;-62
2021/06/29 03:08:10;;;;;;;60.75;13.82;;;16.40;99.90;;;;;;5002336;28;20043;-63
2021/06/29 03:10:36;;;;;;;41.03;12.82;;;16.40;99.90;;;;;;4994577;28;20042;-62
2021/06/29 03:13:01;;;;;;;47.17;12.40;;;16.40;99.90;;;;;;4994030;28;20069;-63
2021/06/29 03:15:28;;;;;;;48.42;12.50;;;16.40;99.90;;;;;;5003517;28;20045;-62
2021/06/29 03:17:53;;;;;;;43.90;12.70;;;16.40;99.90;;;;;;4997991;28;20057;-62
2021/06/29 03:20:19;;;;;;;44.60;12.45;;;16.40;99.90;;;;;;5003646;28;20416;-62
2021/06/29 03:22:46;;;;;;;40.55;10.10;;;16.40;99.90;;;;;;4995236;28;20049;-62
2021/06/29 03:25:12;;;;;;;43.43;10.77;;;16.40;99.90;;;;;;4992869;28;20130;-62
2021/06/29 03:27:38;;;;;;;38.78;10.70;;;16.40;99.90;;;;;;4999048;28;20302;-63
2021/06/29 03:30:08;;;;;;;32.28;10.00;;;16.40;99.90;;;;;;5004093;28;20043;-62
2021/06/29 03:32:34;;;;;;;53.25;11.30;;;16.40;99.90;;;;;;4997588;28;20047;-62
2021/06/29 03:35:00;;;;;;;45.85;11.02;;;16.40;99.90;;;;;;4997942;28;20054;-62
2021/06/29 03:37:26;;;;;;;45.25;11.02;;;16.40;99.90;;;;;;4999400;28;20065;-62
2021/06/29 03:39:51;;;;;;;40.42;11.43;;;16.40;99.90;;;;;;5003738;28;20549;-62
2021/06/29 03:42:18;;;;;;;47.13;12.13;;;16.40;99.90;;;;;;4995544;28;20043;-62
2021/06/29 03:44:43;;;;;;;36.15;10.98;;;16.40;99.90;;;;;;4992184;28;20562;-62
2021/06/29 03:47:29;;;;;;;42.17;11.80;;;16.40;99.90;;;;;;4998042;28;20058;-62
2021/06/29 03:49:55;;;;;;;42.05;11.07;;;16.40;99.90;;;;;;5003988;28;20491;-62
2021/06/29 03:52:21;;;;;;;42.88;12.30;;;16.40;99.90;;;;;;4986837;28;20425;-62
2021/06/29 03:54:47;;;;;;;40.78;10.40;;;16.40;99.90;;;;;;5001943;28;20065;-63
2021/06/29 03:57:13;;;;;;;40.35;11.15;;;16.40;99.90;;;;;;5005958;28;20077;-62
2021/06/29 03:59:38;;;;;;;37.42;11.85;;;16.40;99.90;;;;;;4999269;28;20046;-62
2021/06/29 04:02:04;;;;;;;38.55;11.50;;;16.40;99.90;;;;;;5001505;28;20050;-62
2021/06/29 04:04:30;;;;;;;34.92;11.05;;;16.40;99.90;;;;;;5000768;28;20054;-62
2021/06/29 04:06:56;;;;;;;39.25;11.23;;;16.40;99.90;;;;;;4991199;28;20049;-62
2021/06/29 04:09:21;;;;;;;44.95;12.82;;;16.40;99.90;;;;;;4994158;28;20057;-62
2021/06/29 04:11:47;;;;;;;50.15;12.18;;;16.40;99.90;;;;;;4990314;28;20097;-62
2021/06/29 04:14:13;;;;;;;46.03;11.48;;;16.40;99.90;;;;;;4988520;28;20046;-62
2021/06/29 04:16:39;;;;;;;29.30;10.25;;;16.40;99.90;;;;;;4994385;28;20046;-62
2021/06/29 04:19:05;;;;;;;37.00;10.68;;;16.40;99.90;;;;;;5000586;28;20061;-62
2021/06/29 04:21:31;;;;;;;35.75;10.82;;;16.40;99.90;;;;;;4991222;28;20043;-62
2021/06/29 04:23:56;;;;;;;33.60;10.95;;;16.40;99.90;;;;;;4991347;28;20046;-61
2021/06/29 04:26:22;;;;;;;34.72;11.45;;;16.40;99.90;;;;;;4988789;28;20125;-62
2021/06/29 04:28:49;;;;;;;31.30;10.02;;;16.40;99.90;;;;;;4990979;28;20493;-62
2021/06/29 04:31:17;;;;;;;38.92;11.20;;;16.40;99.90;;;;;;4994532;28;20530;-62
2021/06/29 04:33:43;;;;;;;33.63;11.25;;;16.50;99.90;;;;;;4991164;28;20514;-62
2021/06/29 04:36:09;;;;;;;36.85;12.05;;;16.40;99.90;;;;;;5003650;28;20102;-62
2021/06/29 04:38:35;;;;;;;32.80;12.93;;;16.50;99.90;;;;;;4989544;28;20042;-62
2021/06/29 04:41:01;;;;;;;36.10;12.10;;;16.50;99.90;;;;;;5000666;28;20074;-62
2021/06/29 04:43:27;;;;;;;31.02;11.40;;;16.50;99.90;;;;;;5002242;28;20483;-62
2021/06/29 04:45:53;;;;;;;33.85;11.40;;;16.50;99.90;;;;;;4992352;28;20106;-62
2021/06/29 04:48:19;;;;;;;30.35;10.52;;;16.50;99.90;;;;;;5003731;28;20038;-62
2021/06/29 04:50:45;;;;;;;32.70;10.80;;;16.50;99.90;;;;;;4995706;28;20065;-62
2021/06/29 04:53:11;;;;;;;35.15;10.60;;;16.50;99.90;;;;;;5001325;28;20106;-62
2021/06/29 04:55:37;;;;;;;31.02;10.68;;;16.50;99.90;;;;;;4989482;28;20054;-62
2021/06/29 04:58:03;;;;;;;29.63;11.40;;;16.50;99.90;;;;;;5001157;28;20101;-62
2021/06/29 05:00:28;;;;;;;31.65;12.05;;;16.50;99.90;;;;;;5002537;28;20046;-62
2021/06/29 05:02:54;;;;;;;33.08;11.23;;;16.60;99.90;;;;;;4998661;28;20511;-62
2021/06/29 05:05:21;;;;;;;27.10;11.30;;;16.60;99.90;;;;;;4986892;28;20121;-61
2021/06/29 05:07:48;;;;;;;35.30;11.50;;;16.60;99.90;;;;;;4989176;28;20620;-62
2021/06/29 05:10:14;;;;;;;35.80;11.23;;;16.60;99.90;;;;;;4987910;28;20080;-62
2021/06/29 05:12:41;;;;;;;33.83;12.95;;;16.60;99.90;;;;;;4998209;28;20050;-62
2021/06/29 05:15:09;;;;;;;33.00;12.25;;;16.60;99.90;;;;;;5002959;28;20046;-62
2021/06/29 05:17:35;;;;;;;27.60;10.27;;;16.60;99.90;;;;;;4995597;28;20039;-62
2021/06/29 05:20:01;;;;;;;33.40;10.18;;;16.60;99.90;;;;;;5002681;28;20046;-62
2021/06/29 05:22:27;;;;;;;36.55;10.45;;;16.60;99.90;;;;;;4999615;28;20054;-62
2021/06/29 05:24:53;;;;;;;32.13;12.25;;;16.60;99.90;;;;;;4992907;28;20047;-62
2021/06/29 05:27:18;;;;;;;32.08;10.55;;;16.60;99.90;;;;;;4989803;28;20073;-63
2021/06/29 05:29:44;;;;;;;33.53;10.43;;;16.60;99.90;;;;;;4992909;28;20050;-63
2021/06/29 05:32:10;;;;;;;33.30;11.70;;;16.60;99.90;;;;;;4999408;28;20042;-62
2021/06/29 05:34:37;;;;;;;38.65;11.57;;;16.60;99.90;;;;;;4992550;28;20091;-62
2021/06/29 05:37:03;;;;;;;27.98;9.65;;;16.60;99.90;;;;;;4988131;28;20054;-62
2021/06/29 05:39:29;;;;;;;23.75;8.93;;;16.60;99.90;;;;;;4991357;28;20043;-62
2021/06/29 05:41:54;;;;;;;26.80;10.43;;;16.60;99.90;;;;;;4994643;28;20486;-62
2021/06/29 05:44:21;;;;;;;35.25;10.20;;;16.60;99.90;;;;;;4993312;28;20396;-62
2021/06/29 05:46:48;;;;;;;36.63;10.95;;;16.60;99.90;;;;;;5001887;28;20114;-62
2021/06/29 05:49:14;;;;;;;40.53;10.30;;;16.60;99.90;;;;;;4996750;28;20050;-62
2021/06/29 05:51:48;;;;;;;24.20;10.07;;;16.60;99.90;;;;;;4990331;28;20771;-63
2021/06/29 05:54:14;;;;;;;37.88;11.90;;;16.60;99.90;;;;;;4997143;28;20043;-63
2021/06/29 05:56:41;;;;;;;24.88;10.38;;;16.60;99.90;;;;;;4999645;28;20038;-63
2021/06/29 05:59:08;;;;;;;35.85;11.40;;;16.70;99.90;;;;;;5002795;28;20054;-63
2021/06/29 06:01:35;;;;;;;41.83;11.85;;;16.70;99.90;;;;;;4999812;28;20137;-63
2021/06/29 06:04:01;;;;;;;34.88;12.68;;;16.70;99.90;;;;;;4999705;28;20161;-62
2021/06/29 06:06:27;;;;;;;42.78;13.50;;;16.70;99.90;;;;;;4996437;28;20057;-63
2021/06/29 06:08:52;;;;;;;41.60;12.70;;;16.70;99.90;;;;;;4991369;28;20049;-62
2021/06/29 06:11:18;;;;;;;42.05;12.50;;;16.70;99.90;;;;;;4988493;28;20057;-62
2021/06/29 06:13:44;;;;;;;43.13;13.02;;;16.80;99.90;;;;;;4988132;28;20130;-61
2021/06/29 06:16:10;;;;;;;31.95;12.77;;;16.80;99.90;;;;;;4987021;28;20076;-62
2021/06/29 06:18:36;;;;;;;44.88;12.05;;;16.80;99.90;;;;;;4990034;28;20043;-62
2021/06/29 06:21:02;;;;;;;42.03;11.70;;;16.80;99.90;;;;;;4986775;28;20069;-62
2021/06/29 06:23:28;;;;;;;46.75;13.70;;;16.80;99.90;;;;;;5001288;28;20049;-61
2021/06/29 06:25:54;;;;;;;40.42;13.60;;;16.80;99.90;;;;;;4996322;28;20046;-62
2021/06/29 06:28:19;;;;;;;30.63;11.55;;;16.90;99.90;;;;;;4995892;28;20137;-61
2021/06/29 06:30:45;;;;;;;33.38;11.23;;;16.90;99.90;;;;;;4991290;28;20078;-62
2021/06/29 06:33:11;;;;;;;32.50;12.50;;;16.90;99.90;;;;;;4990843;28;20050;-61
2021/06/29 06:35:37;;;;;;;36.63;12.20;;;16.90;99.90;;;;;;4995320;28;20053;-61
2021/06/29 06:38:03;;;;;;;34.33;12.35;;;17.00;99.90;;;;;;4998851;28;20038;-62
2021/06/29 06:40:29;;;;;;;33.70;11.95;;;17.00;99.90;;;;;;4989900;28;20130;-62
2021/06/29 06:42:55;;;;;;;38.47;12.15;;;17.00;99.90;;;;;;5003566;28;21517;-61
2021/06/29 06:45:24;;;;;;;40.58;13.20;;;17.10;99.90;;;;;;4994326;28;20053;-62
2021/06/29 06:47:54;;;;;;;42.40;13.32;;;17.10;99.90;;;;;;4995069;28;20047;-62
2021/06/29 06:50:21;;;;;;;38.53;13.60;;;17.10;99.90;;;;;;4999169;28;20117;-62
2021/06/29 06:52:46;;;;;;;38.35;13.68;;;17.10;99.90;;;;;;5004723;28;20046;-62
2021/06/29 06:55:13;;;;;;;43.83;12.25;;;17.10;99.90;;;;;;4996708;28;20054;-61
2021/06/29 06:57:41;;;;;;;36.65;15.32;;;17.10;99.90;;;;;;4992578;28;20046;-61
2021/06/29 07:00:08;;;;;;;40.92;13.63;;;17.10;99.90;;;;;;4993694;28;20082;-62
2021/06/29 07:02:34;;;;;;;42.95;13.25;;;17.10;99.90;;;;;;4996103;28;20074;-62
2021/06/29 07:05:00;;;;;;;38.47;13.18;;;17.10;99.90;;;;;;5004960;28;20042;-62
2021/06/29 07:07:26;;;;;;;34.42;13.10;;;17.20;99.90;;;;;;5005116;28;20043;-62
2021/06/29 07:09:51;;;;;;;36.08;13.63;;;17.20;99.90;;;;;;5005428;28;20046;-61
2021/06/29 07:12:17;;;;;;;45.00;14.95;;;17.20;99.90;;;;;;5002680;28;20038;-62
2021/06/29 07:14:43;;;;;;;42.55;13.93;;;17.20;99.90;;;;;;5001890;28;20069;-61
2021/06/29 07:17:09;;;;;;;36.85;13.88;;;17.30;99.90;;;;;;4995602;28;20046;-62
2021/06/29 07:19:35;;;;;;;40.83;12.65;;;17.30;99.90;;;;;;5004575;28;20053;-62
2021/06/29 07:22:00;;;;;;;40.60;13.38;;;17.40;99.90;;;;;;5016033;28;20047;-61
2021/06/29 07:24:26;;;;;;;37.65;12.10;;;17.40;99.90;;;;;;4997862;28;20061;-61
2021/06/29 07:26:52;;;;;;;40.95;13.45;;;17.40;99.90;;;;;;4996687;28;20049;-62
2021/06/29 07:29:18;;;;;;;38.25;13.57;;;17.40;99.90;;;;;;4997439;28;20138;-62
2021/06/29 07:31:44;;;;;;;42.92;14.77;;;17.50;99.90;;;;;;4999223;28;20046;-62
2021/06/29 07:34:10;;;;;;;40.63;13.68;;;17.50;99.90;;;;;;4994616;28;20066;-61
2021/06/29 07:36:36;;;;;;;35.53;12.55;;;17.70;99.90;;;;;;4996410;28;20047;-61
2021/06/29 07:39:04;;;;;;;35.92;13.13;;;17.70;99.90;;;;;;5001544;28;20100;-62
2021/06/29 07:41:29;;;;;;;42.03;13.45;;;17.60;99.90;;;;;;4989243;28;20053;-62
2021/06/29 07:43:55;;;;;;;31.80;12.23;;;17.70;99.90;;;;;;5001829;28;20491;-62
2021/06/29 07:46:25;;;;;;;36.80;14.20;;;17.70;99.90;;;;;;4997819;28;20057;-61
2021/06/29 07:48:51;;;;;;;43.00;14.27;;;17.70;99.90;;;;;;5001753;28;20053;-61
2021/06/29 07:51:16;;;;;;;44.83;14.88;;;17.70;99.90;;;;;;4991766;28;20042;-69
2021/06/29 07:53:42;;;;;;;41.08;14.05;;;17.90;99.90;;;;;;4992209;28;20057;-73
2021/06/29 07:56:14;;;;;;;46.97;14.25;;;17.90;99.90;;;;;;4986833;28;20065;-65
2021/06/29 07:58:44;;;;;;;37.75;14.45;;;17.90;99.90;;;;;;5000797;28;20046;-71
2021/06/29 08:01:14;;;;;;;39.65;14.82;;;18.00;99.90;;;;;;4989882;28;20049;-71
2021/06/29 08:03:40;;;;;;;36.72;14.85;;;17.90;99.90;;;;;;4994428;28;20059;-72
2021/06/29 08:06:06;;;;;;;47.22;15.48;;;18.00;99.90;;;;;;4994926;28;20090;-72
2021/06/29 08:08:32;;;;;;;45.30;15.18;;;18.00;99.90;;;;;;4993780;28;20039;-73
2021/06/29 08:11:03;;;;;;;40.92;14.20;;;18.10;99.90;;;;;;4991108;28;20098;-72
2021/06/29 08:13:29;;;;;;;51.72;16.38;;;18.10;99.90;;;;;;4990291;28;20042;-74
2021/06/29 08:15:55;;;;;;;46.35;15.02;;;18.10;99.90;;;;;;4996219;28;20054;-73
2021/06/29 08:18:23;;;;;;;37.38;13.90;;;18.10;99.90;;;;;;4993780;28;20034;-73
2021/06/29 08:20:50;;;;;;;38.92;16.48;;;18.30;99.90;;;;;;4995612;28;20086;-72
2021/06/29 08:23:16;;;;;;;42.87;15.33;;;18.30;99.90;;;;;;4990111;28;20065;-73
2021/06/29 08:25:43;;;;;;;43.85;17.15;;;18.50;99.90;;;;;;4989523;28;20313;-74
2021/06/29 08:28:59;;;;;;;52.80;19.48;;;18.60;99.90;;;;;;4995775;28;20572;-73
2021/06/29 08:31:24;;;;;;;59.13;17.58;;;18.70;99.90;;;;;;4985389;28;20050;-73
2021/06/29 08:33:53;;;;;;;35.33;15.57;;;18.70;99.90;;;;;;4990191;28;20042;-73
2021/06/29 08:36:20;;;;;;;54.33;17.77;;;18.80;99.90;;;;;;4993655;28;20047;-72
2021/06/29 08:38:46;;;;;;;55.83;17.38;;;18.90;99.90;;;;;;4985969;28;20102;-73
2021/06/29 08:41:15;;;;;;;41.30;16.25;;;19.10;99.90;;;;;;4995341;28;20120;-73
2021/06/29 08:43:41;;;;;;;44.95;15.38;;;19.10;99.90;;;;;;4993595;28;20046;-73
2021/06/29 08:46:09;;;;;;;47.63;17.85;;;19.20;99.90;;;;;;4988640;28;20047;-73
2021/06/29 08:48:37;;;;;;;42.83;17.67;;;19.30;99.90;;;;;;4997877;28;20568;-73
2021/06/29 08:51:06;;;;;;;44.17;16.85;;;19.10;99.90;;;;;;4989702;28;20098;-73
2021/06/29 08:53:33;;;;;;;49.45;16.52;;;19.10;99.90;;;;;;4994139;28;20242;-72
2021/06/29 08:56:00;;;;;;;43.83;18.60;;;19.40;99.90;;;;;;4986829;28;20050;-76
2021/06/29 08:58:28;;;;;;;48.30;19.58;;;19.50;99.90;;;;;;4990805;28;20732;-71
2021/06/29 09:00:55;;;;;;;45.47;18.73;;;19.50;99.90;;;;;;4992296;28;20046;-70
2021/06/29 09:03:22;;;;;;;45.65;21.42;;;19.40;99.90;;;;;;4993305;28;20050;-67
2021/06/29 09:05:50;;;;;;;43.75;21.58;;;19.40;99.90;;;;;;4991476;28;20062;-67
2021/06/29 09:08:20;;;;;;;46.88;21.70;;;19.40;99.90;;;;;;4994286;28;20050;-67
2021/06/29 09:11:10;;;;;;;48.80;22.45;;;19.40;99.90;;;;;;4986988;28;20351;-71
2021/06/29 09:13:37;;;;;;;45.72;20.55;;;19.40;99.90;;;;;;4990911;28;20042;-69
2021/06/29 09:16:04;;;;;;;47.05;20.73;;;19.50;99.90;;;;;;5000037;28;20043;-69
2021/06/29 09:18:32;;;;;;;53.80;22.13;;;19.60;99.90;;;;;;4995572;28;20049;-68
2021/06/29 09:21:04;;;;;;;59.10;23.90;;;19.60;99.90;;;;;;4993248;28;20045;-68
2021/06/29 09:23:34;;;;;;;50.70;23.65;;;19.50;99.90;;;;;;4991008;28;20050;-68
2021/06/29 09:26:07;;;;;;;56.08;24.40;;;19.40;99.90;;;;;;4994359;28;20057;-70
2021/06/29 09:28:36;;;;;;;62.08;25.35;;;19.40;99.90;;;;;;4990156;28;20042;-70
2021/06/29 09:31:08;;;;;;;56.30;24.63;;;19.40;99.90;;;;;;4990008;28;20062;-70
2021/06/29 09:33:37;;;;;;;51.25;24.63;;;19.40;99.90;;;;;;4990112;28;20069;-70
2021/06/29 09:36:11;;;;;;;54.97;26.42;;;19.20;99.90;;;;;;4988707;28;20038;-73
2021/06/29 09:38:39;;;;;;;56.95;26.38;;;19.30;99.90;;;;;;4987040;28;20046;-68
2021/06/29 09:41:09;;;;;;;61.20;26.70;;;19.30;99.90;;;;;;4986996;28;20065;-72
2021/06/29 09:43:41;;;;;;;59.67;27.40;;;19.40;99.90;;;;;;4988799;28;20054;-69
2021/06/29 09:46:09;;;;;;;55.08;29.25;;;19.40;99.90;;;;;;5005035;28;20042;-69
2021/06/29 09:48:57;;;;;;;59.58;30.13;;;19.30;99.90;;;;;;4987339;28;20042;-66
2021/06/29 09:51:31;;;;;;;56.97;28.05;;;19.40;99.90;;;;;;4991703;28;20065;-66
2021/06/29 09:54:02;;;;;;;61.72;29.65;;;19.30;99.90;;;;;;4989091;28;20142;-65
2021/06/29 09:56:36;;;;;;;63.00;29.13;;;19.30;99.90;;;;;;4989975;28;20055;-65
2021/06/29 09:59:02;;;;;;;50.75;26.52;;;19.40;99.90;;;;;;4997123;28;20095;-68
2021/06/29 10:01:29;;;;;;;51.25;24.27;;;19.50;99.90;;;;;;4997036;28;20553;-66
2021/06/29 10:03:57;;;;;;;51.25;25.17;;;19.50;99.90;;;;;;4994387;28;20058;-66
2021/06/29 10:06:26;;;;;;;48.05;24.85;;;19.40;99.90;;;;;;4995363;28;20034;-69
2021/06/29 10:09:04;;;;;;;49.65;22.45;;;19.40;99.90;;;;;;4992007;28;20042;-70
2021/06/29 10:11:52;;;;;;;53.13;23.23;;;19.40;99.90;;;;;;4998180;28;20042;-71
2021/06/29 10:14:21;;;;;;;51.83;24.23;;;19.30;99.90;;;;;;4994234;28;20046;-73
2021/06/29 10:16:48;;;;;;;53.47;23.80;;;19.20;99.90;;;;;;4993479;28;20074;-72
2021/06/29 10:22:05;;;;;;;49.05;21.95;;;19.30;99.90;;;;;;4997113;28;20046;-72
2021/06/29 10:24:34;;;;;;;48.87;22.27;;;19.20;99.90;;;;;;4992200;28;20077;-70
2021/06/29 10:27:04;;;;;;;54.30;20.83;;;19.30;99.90;;;;;;4991612;28;20134;-69
2021/06/29 10:29:30;;;;;;;56.50;22.08;;;19.30;99.90;;;;;;4998640;28;20046;-62
2021/06/29 10:31:59;;;;;;;48.40;17.88;;;19.30;99.90;;;;;;5002986;28;21044;-73
2021/06/29 10:34:25;;;;;;;50.58;20.70;;;19.10;99.90;;;;;;4991729;28;20043;-72
2021/06/29 10:36:56;;;;;;;46.38;19.20;;;19.10;99.90;;;;;;4994837;28;20111;-62
2021/06/29 10:39:25;;;;;;;57.08;21.50;;;19.10;99.90;;;;;;4989832;28;20050;-62
2021/06/29 10:41:52;;;;;;;55.10;21.33;;;19.20;99.90;;;;;;4989862;28;20044;-65
2021/06/29 10:44:21;;;;;;;50.53;20.83;;;19.00;99.90;;;;;;4990956;28;20213;-65
2021/06/29 10:46:51;;;;;;;47.15;20.70;;;19.00;99.90;;;;;;4990866;28;20039;-65
2021/06/29 10:49:34;;;;;;;51.83;21.00;;;19.10;99.90;;;;;;4989490;28;20042;-65
2021/06/29 10:52:30;;;;;;;54.78;21.52;;;19.10;99.90;;;;;;4997538;28;20042;-69
2021/06/29 10:55:29;;;;;;;49.45;19.25;;;19.00;99.90;;;;;;4995782;28;20038;-70
2021/06/29 10:58:00;;;;;;;40.83;19.05;;;19.00;99.90;;;;;;4954691;29;20056;-78
2021/06/29 11:00:35;;;;;;;43.13;21.95;;;19.00;99.90;;;;;;4950398;29;20039;-74
2021/06/29 11:03:04;;;;;;;49.20;22.98;;;19.10;99.90;;;;;;4952327;29;20051;-78
2021/06/29 11:05:36;;;;;;;46.22;22.00;;;19.20;99.90;;;;;;4954415;29;20048;-78
2021/06/29 11:08:17;;;;;;;51.50;22.48;;;19.10;99.90;;;;;;4953977;28;20086;-67
2021/06/29 11:10:45;;;;;;;48.63;20.67;;;19.10;99.90;;;;;;4954508;29;20048;-67
2021/06/29 11:13:12;;;;;;;50.72;22.20;;;19.20;99.90;;;;;;4955465;29;20047;-66
2021/06/29 11:15:52;;;;;;;45.55;21.67;;;19.20;99.90;;;;;;4957192;29;20126;-79
2021/06/29 11:18:47;;;;;;;46.08;21.60;;;19.30;99.90;;;;;;4962062;29;20051;-69
2021/06/29 11:21:18;;;;;;;43.50;21.13;;;19.30;99.90;;;;;;4948155;29;20079;-71
2021/06/29 11:23:44;;;;;;;44.95;21.60;;;19.20;99.90;;;;;;4952403;29;20039;-71
2021/06/29 11:26:13;;;;;;;53.53;23.88;;;19.20;99.90;;;;;;4943750;29;20055;-70
2021/06/29 11:28:49;;;;;;;56.45;22.83;;;19.20;99.90;;;;;;4948683;29;20066;-70
2021/06/29 11:31:25;;;;;;;55.20;22.98;;;19.30;99.90;;;;;;4953182;29;20075;-70
2021/06/29 11:34:11;;;;;;;48.63;22.63;;;19.30;99.90;;;;;;4976214;28;20047;-70
2021/06/29 11:36:39;;;;;;;47.40;23.55;;;19.30;99.90;;;;;;4999630;28;20049;-70
2021/06/29 11:39:18;;;;;;;54.88;22.33;;;19.40;99.90;;;;;;4989009;28;20144;-70
2021/06/29 11:42:02;;;;;;;;;;;19.50;99.90;;;;;;4993471;28;20053;-70
2021/06/29 11:44:27;;;;;;;45.70;23.15;;;19.50;99.90;;;;;;4987214;28;19922;-70
2021/06/29 11:47:01;;;;;;;42.20;21.80;;;19.50;99.90;;;;;;4992736;28;20057;-69
2021/06/29 11:49:37;;;;;;;63.88;24.58;;;19.50;99.90;;;;;;4993926;28;20046;-69
2021/06/29 11:52:06;;;;;;;48.30;24.10;;;19.60;99.90;;;;;;4989701;28;20074;-69
2021/06/29 11:54:43;;;;;;;54.00;24.02;;;19.70;99.90;;;;;;4991184;28;20061;-69
2021/06/29 11:57:30;;;;;;;57.95;26.25;;;19.80;99.90;;;;;;4992740;28;20396;-69
2021/06/29 12:00:18;;;;;;;50.38;23.48;;;20.00;99.90;;;;;;4992105;28;20068;-69
2021/06/29 12:02:44;;;;;;;60.72;25.75;;;19.90;99.90;;;;;;4989489;28;20065;-69
2021/06/29 12:05:18;;;;;;;62.58;24.08;;;19.80;99.90;;;;;;4991154;28;20047;-69
2021/06/29 12:07:51;;;;;;;61.58;24.00;;;19.80;99.90;;;;;;4985832;28;20064;-69
2021/06/29 12:10:20;;;;;;;62.33;23.23;;;19.70;99.90;;;;;;4990649;28;20039;-70
2021/06/29 12:13:17;;;;;;;67.18;25.67;;;19.40;99.90;;;;;;4985562;28;20066;-69
2021/06/29 12:15:52;;;;;;;60.08;24.33;;;19.50;99.90;;;;;;4987441;28;20508;-70
2021/06/29 12:18:28;;;;;;;61.53;23.85;;;19.40;99.90;;;;;;4987346;28;20047;-69
2021/06/29 12:21:00;;;;;;;64.55;24.25;;;19.30;99.90;;;;;;4990437;28;20054;-69
2021/06/29 12:23:31;;;;;;;68.93;25.27;;;19.40;99.90;;;;;;4987544;28;20054;-69
2021/06/29 12:26:03;;;;;;;57.20;25.33;;;19.40;99.90;;;;;;4999105;28;20050;-69
2021/06/29 12:28:31;;;;;;;63.42;23.33;;;19.40;99.90;;;;;;4992314;28;20054;-69
2021/06/29 12:31:01;;;;;;;59.22;24.92;;;19.30;99.90;;;;;;4988045;28;20597;-69
2021/06/29 12:33:32;;;;;;;62.22;24.92;;;19.40;99.90;;;;;;4991996;28;20042;-69
2021/06/29 12:36:07;;;;;;;45.67;21.02;;;19.30;99.90;;;;;;4997005;28;20042;-69
2021/06/29 12:38:35;;;;;;;65.60;24.38;;;19.10;99.90;;;;;;4989035;28;20122;-70
2021/06/29 12:41:05;;;;;;;67.82;25.83;;;19.10;99.90;;;;;;4996320;28;20089;-70
2021/06/29 12:43:37;;;;;;;52.92;22.67;;;19.00;99.90;;;;;;4987739;28;20042;-70